createdAt,value
2023-01-28T00:01:22.625Z,93.03
2023-01-28T00:03:54.615Z,92.84
2023-01-28T00:06:21.480Z,92.97
2023-01-28T00:08:48.674Z,93.60
2023-01-28T00:11:15.463Z,93.57
2023-01-28T00:13:42.375Z,93.55
2023-01-28T00:16:10.192Z,93.62
2023-01-28T00:18:37.613Z,94.32
2023-01-28T00:21:08.938Z,94.62
2023-01-28T00:23:38.025Z,95.46
2023-01-28T00:26:14.372Z,95.74
2023-01-28T00:28:42.617Z,96.29
2023-01-28T00:31:18.127Z,96.76
2023-01-28T00:33:47.524Z,97.28
2023-01-28T00:36:16.034Z,97.33
2023-01-28T00:38:43.624Z,97.00
2023-01-28T00:41:16.457Z,96.85
2023-01-28T00:43:45.074Z,97.05
2023-01-28T00:46:14.129Z,97.37
2023-01-28T00:48:43.018Z,96.97
2023-01-28T00:51:13.123Z,97.04
2023-01-28T00:53:41.096Z,97.08
2023-01-28T00:56:09.963Z,97.17
2023-01-28T00:58:36.755Z,97.29
2023-01-28T01:01:13.605Z,97.87
2023-01-28T01:03:40.739Z,97.98
2023-01-28T01:06:09.015Z,98.61
2023-01-28T01:08:36.056Z,98.50
2023-01-28T01:11:03.943Z,98.77
2023-01-28T01:13:32.796Z,98.21
2023-01-28T01:16:14.546Z,98.44
2023-01-28T01:18:42.131Z,98.56
2023-01-28T01:21:15.790Z,98.21
2023-01-28T01:23:42.517Z,98.39
2023-01-28T01:26:09.820Z,98.15
2023-01-28T01:28:37.442Z,98.22
2023-01-28T01:31:15.066Z,97.79
2023-01-28T01:33:43.707Z,97.63
2023-01-28T01:36:12.332Z,97.80
2023-01-28T01:38:40.421Z,97.35
2023-01-28T01:41:07.913Z,96.78
2023-01-28T01:44:05.732Z,96.80
2023-01-28T01:46:43.644Z,96.59
2023-01-28T01:49:23.157Z,96.92
2023-01-28T01:51:57.220Z,97.06
2023-01-28T01:54:27.077Z,96.99
2023-01-28T01:56:53.952Z,96.46
2023-01-28T01:59:26.418Z,96.71
2023-01-28T02:01:54.313Z,96.83
2023-01-28T02:04:28.079Z,96.56
2023-01-28T02:06:56.191Z,96.12
2023-01-28T02:09:25.301Z,96.33
2023-01-28T02:11:56.101Z,95.91
2023-01-28T02:14:31.456Z,95.96
2023-01-28T02:17:00.565Z,96.01
2023-01-28T02:19:38.255Z,96.03
2023-01-28T02:22:38.258Z,96.41
2023-01-28T02:25:12.244Z,95.98
2023-01-28T02:28:08.685Z,95.83
2023-01-28T02:30:52.109Z,95.77
2023-01-28T02:33:33.084Z,95.78
2023-01-28T02:36:12.722Z,95.70
2023-01-28T02:38:49.424Z,95.83
2023-01-28T02:41:35.145Z,95.97
2023-01-28T02:44:03.694Z,95.27
2023-01-28T02:46:48.995Z,95.30
2023-01-28T02:49:28.847Z,95.26
2023-01-28T02:52:48.799Z,95.43
2023-01-28T02:55:41.403Z,95.21
2023-01-28T02:58:13.677Z,95.13
2023-01-28T03:00:54.473Z,95.17
2023-01-28T03:04:24.865Z,95.37
2023-01-28T03:06:57.611Z,95.44
2023-01-28T03:09:26.969Z,95.54
2023-01-28T03:12:26.499Z,95.56
2023-01-28T03:15:20.690Z,95.15
2023-01-28T03:18:13.437Z,95.54
2023-01-28T03:21:08.331Z,95.41
2023-01-28T03:24:24.143Z,95.26
2023-01-28T03:27:31.322Z,94.78
2023-01-28T03:30:26.405Z,94.84
2023-01-28T03:33:12.911Z,95.08
2023-01-28T03:35:58.775Z,95.03
2023-01-28T03:38:34.062Z,94.90
2023-01-28T03:41:03.261Z,95.45
2023-01-28T03:43:31.356Z,95.01
2023-01-28T03:45:58.496Z,95.15
2023-01-28T03:48:27.987Z,94.93
2023-01-28T03:50:59.183Z,95.07
2023-01-28T03:53:26.380Z,94.68
2023-01-28T03:55:54.365Z,94.54
2023-01-28T03:58:21.871Z,94.54
2023-01-28T04:00:48.827Z,94.48
2023-01-28T04:03:18.917Z,94.91
2023-01-28T04:05:57.659Z,95.03
2023-01-28T04:08:25.145Z,94.75
2023-01-28T04:10:53.191Z,94.90
2023-01-28T04:13:20.241Z,95.10
2023-01-28T04:15:47.839Z,95.34
2023-01-28T04:18:14.854Z,95.09
2023-01-28T04:20:41.793Z,95.05
2023-01-28T04:23:08.796Z,94.95
2023-01-28T04:25:35.600Z,95.11
2023-01-28T04:28:02.414Z,95.09
2023-01-28T04:30:29.392Z,95.51
2023-01-28T04:32:56.139Z,95.42
2023-01-28T04:35:22.908Z,94.89
2023-01-28T04:37:49.700Z,94.85
2023-01-28T04:40:16.866Z,94.57
2023-01-28T04:42:43.762Z,94.22
2023-01-28T04:45:10.939Z,93.64
2023-01-28T04:47:37.671Z,93.71
2023-01-28T04:50:04.895Z,93.56
2023-01-28T04:52:31.635Z,93.33
2023-01-28T04:54:58.708Z,93.02
2023-01-28T04:57:25.509Z,93.31
2023-01-28T04:59:52.255Z,93.20
2023-01-28T05:02:19.053Z,94.31
2023-01-28T05:04:45.875Z,94.13
2023-01-28T05:07:12.682Z,94.42
2023-01-28T05:09:39.412Z,94.75
2023-01-28T05:12:06.493Z,94.84
2023-01-28T05:14:33.253Z,94.83
2023-01-28T05:17:00.077Z,94.60
2023-01-28T05:19:26.866Z,94.67
2023-01-28T05:21:53.576Z,94.54
2023-01-28T05:24:21.754Z,94.45
2023-01-28T05:26:48.559Z,94.04
2023-01-28T05:29:15.304Z,94.23
2023-01-28T05:31:42.054Z,94.36
2023-01-28T05:34:08.898Z,94.37
2023-01-28T05:36:35.659Z,93.95
2023-01-28T05:39:02.403Z,93.96
2023-01-28T05:41:29.197Z,94.04
2023-01-28T05:43:55.989Z,94.29
2023-01-28T05:46:23.058Z,94.31
2023-01-28T05:48:51.072Z,94.49
2023-01-28T05:51:18.147Z,93.93
2023-01-28T05:53:44.973Z,94.69
2023-01-28T05:56:11.771Z,94.85
2023-01-28T05:58:38.537Z,95.32
2023-01-28T06:01:05.332Z,95.64
2023-01-28T06:03:32.125Z,95.57
2023-01-28T06:05:58.891Z,95.46
2023-01-28T06:08:25.657Z,95.71
2023-01-28T06:10:52.414Z,95.94
2023-01-28T06:13:19.123Z,95.89
2023-01-28T06:15:51.092Z,95.51
2023-01-28T06:18:17.961Z,95.54
2023-01-28T06:20:44.712Z,95.85
2023-01-28T06:23:11.429Z,95.68
2023-01-28T06:25:38.191Z,96.31
2023-01-28T06:28:05.024Z,96.46
2023-01-28T06:30:31.879Z,96.27
2023-01-28T06:32:59.146Z,96.12
2023-01-28T06:35:26.014Z,95.94
2023-01-28T06:37:53.706Z,95.93
2023-01-28T06:40:22.976Z,95.69
2023-01-28T06:42:49.911Z,95.62
2023-01-28T06:45:16.727Z,95.77
2023-01-28T06:47:43.460Z,95.83
2023-01-28T06:50:11.206Z,95.46
2023-01-28T06:52:37.911Z,94.96
2023-01-28T06:55:05.174Z,94.65
2023-01-28T06:57:31.923Z,95.01
2023-01-28T06:59:58.675Z,95.25
2023-01-28T07:02:27.599Z,95.03
2023-01-28T07:04:54.526Z,94.84
2023-01-28T07:07:21.345Z,95.49
2023-01-28T07:09:48.082Z,95.36
2023-01-28T07:12:14.859Z,95.21
2023-01-28T07:14:41.583Z,95.17
2023-01-28T07:17:08.367Z,95.41
2023-01-28T07:19:35.428Z,95.29
2023-01-28T07:22:03.307Z,95.27
2023-01-28T07:24:30.573Z,95.21
2023-01-28T07:26:57.388Z,95.35
2023-01-28T07:29:24.125Z,94.99
2023-01-28T07:31:50.904Z,95.21
2023-01-28T07:34:17.634Z,95.58
2023-01-28T07:36:44.357Z,95.83
2023-01-28T07:39:11.120Z,95.74
2023-01-28T07:41:37.836Z,95.43
2023-01-28T07:44:04.968Z,95.16
2023-01-28T07:46:31.872Z,95.29
2023-01-28T07:48:58.599Z,95.25
2023-01-28T07:51:26.029Z,95.38
2023-01-28T07:53:52.772Z,95.51
2023-01-28T07:56:19.491Z,95.35
2023-01-28T07:58:46.233Z,94.98
2023-01-28T08:01:14.345Z,94.71
2023-01-28T08:03:41.132Z,94.71
2023-01-28T08:06:07.900Z,95.13
2023-01-28T08:08:34.719Z,95.12
2023-01-28T08:11:10.915Z,94.31
2023-01-28T08:13:37.835Z,94.03
2023-01-28T08:16:05.181Z,93.21
2023-01-28T08:18:32.230Z,93.76
2023-01-28T08:21:00.116Z,93.74
2023-01-28T08:23:29.213Z,94.36
2023-01-28T08:25:59.321Z,94.39
2023-01-28T08:28:26.599Z,94.29
2023-01-28T08:30:53.639Z,94.30
2023-01-28T08:33:20.785Z,93.82
2023-01-28T08:35:47.717Z,93.74
2023-01-28T08:38:18.046Z,93.92
2023-01-28T08:40:44.850Z,94.02
2023-01-28T08:43:11.685Z,94.13
2023-01-28T08:45:40.386Z,93.51
2023-01-28T08:48:10.221Z,93.75
2023-01-28T08:50:39.664Z,94.14
2023-01-28T08:53:12.367Z,93.69
2023-01-28T08:55:39.086Z,93.24
2023-01-28T08:58:18.334Z,93.35
2023-01-28T09:00:48.047Z,92.88
2023-01-28T09:03:15.265Z,93.32
2023-01-28T09:05:42.430Z,94.06
2023-01-28T09:08:15.404Z,93.40
2023-01-28T09:10:42.705Z,93.25
2023-01-28T09:13:15.876Z,93.13
2023-01-28T09:15:43.098Z,92.40
2023-01-28T09:18:10.244Z,92.49
2023-01-28T09:20:37.857Z,92.63
2023-01-28T09:23:04.926Z,93.00
2023-01-28T09:25:32.519Z,92.63
2023-01-28T09:27:59.369Z,92.77
2023-01-28T09:30:26.674Z,92.52
2023-01-28T09:32:55.297Z,93.31
2023-01-28T09:35:22.497Z,93.15
2023-01-28T09:37:49.395Z,93.22
2023-01-28T09:40:37.393Z,93.10
2023-01-28T09:43:29.317Z,92.39
2023-01-28T09:45:59.428Z,92.00
2023-01-28T09:48:33.896Z,91.62
2023-01-28T09:51:01.931Z,92.35
2023-01-28T09:53:35.774Z,92.57
2023-01-28T09:56:13.320Z,91.63
2023-01-28T09:58:42.401Z,91.44
2023-01-28T10:01:46.354Z,91.64
2023-01-28T10:04:23.412Z,91.81
2023-01-28T10:07:43.092Z,91.59
2023-01-28T10:10:34.649Z,91.96
2023-01-28T10:13:31.493Z,91.41
2023-01-28T10:16:15.573Z,92.12
2023-01-28T10:18:52.821Z,92.22
2023-01-28T10:21:29.458Z,91.86
2023-01-28T10:24:13.851Z,92.33
2023-01-28T10:26:43.114Z,91.73
2023-01-28T10:29:28.133Z,90.77
2023-01-28T10:32:03.072Z,90.07
2023-01-28T10:34:29.832Z,89.88
2023-01-28T10:36:58.186Z,89.23
2023-01-28T10:39:26.384Z,89.58
2023-01-28T10:41:58.204Z,89.57
2023-01-28T10:44:39.170Z,89.67
2023-01-28T10:47:15.829Z,89.53
2023-01-28T10:49:49.357Z,89.36
2023-01-28T10:52:16.895Z,90.24
2023-01-28T10:54:43.639Z,90.33
2023-01-28T10:57:16.927Z,90.69
2023-01-28T10:59:44.502Z,90.14
2023-01-28T11:02:32.845Z,90.28
2023-01-28T11:05:15.221Z,91.03
2023-01-28T11:07:42.114Z,90.07
2023-01-28T11:10:32.431Z,91.32
2023-01-28T11:13:06.285Z,92.08
2023-01-28T11:15:33.624Z,91.35
2023-01-28T11:18:08.832Z,91.19
2023-01-28T11:20:43.783Z,90.33
2023-01-28T11:23:25.319Z,89.94
2023-01-28T11:26:09.506Z,90.77
2023-01-28T11:28:41.883Z,89.95
2023-01-28T11:31:13.353Z,89.62
2023-01-28T11:33:50.218Z,87.93
2023-01-28T11:36:32.178Z,88.07
2023-01-28T11:39:22.318Z,87.40
2023-01-28T11:41:49.449Z,86.59
2023-01-28T11:44:22.156Z,86.05
2023-01-28T11:47:33.915Z,85.75
2023-01-28T11:50:41.651Z,86.92
2023-01-28T11:53:40.619Z,85.74
2023-01-28T11:56:39.958Z,84.87
2023-01-28T11:59:42.879Z,85.37
2023-01-28T12:02:26.761Z,85.30
2023-01-28T12:05:12.943Z,84.89
2023-01-28T12:07:55.737Z,84.93
2023-01-28T12:10:41.604Z,85.92
2023-01-28T12:13:42.960Z,85.75
2023-01-28T12:16:17.807Z,85.36
2023-01-28T12:19:30.106Z,85.25
2023-01-28T12:22:05.705Z,84.71
2023-01-28T12:25:13.180Z,85.71
2023-01-28T12:28:10.193Z,84.68
2023-01-28T12:31:28.090Z,84.87
2023-01-28T12:34:13.449Z,83.73
2023-01-28T12:37:20.858Z,84.76
2023-01-28T12:40:09.073Z,84.40
2023-01-28T12:42:38.009Z,84.90
2023-01-28T12:45:21.043Z,84.68
2023-01-28T12:47:51.793Z,84.08
2023-01-28T12:50:28.949Z,83.85
2023-01-28T12:53:14.521Z,84.38
2023-01-28T12:55:49.025Z,84.82
2023-01-28T12:58:26.082Z,84.96
2023-01-28T13:01:01.659Z,84.77
2023-01-28T13:03:42.614Z,85.11
2023-01-28T13:06:18.135Z,84.49
2023-01-28T13:08:44.914Z,84.38
2023-01-28T13:11:17.556Z,83.56
2023-01-28T13:13:46.816Z,83.92
2023-01-28T13:16:14.187Z,83.92
2023-01-28T13:18:41.074Z,83.80
2023-01-28T13:21:26.411Z,83.23
2023-01-28T13:24:02.855Z,83.47
2023-01-28T13:26:38.482Z,83.22
2023-01-28T13:29:33.440Z,83.83
2023-01-28T13:32:03.977Z,83.20
2023-01-28T13:34:38.058Z,81.66
2023-01-28T13:37:47.372Z,79.89
2023-01-28T13:40:14.075Z,79.01
2023-01-28T13:42:41.897Z,78.17
2023-01-28T13:45:22.434Z,79.36
2023-01-28T13:48:00.136Z,78.75
2023-01-28T13:50:39.832Z,78.64
2023-01-28T13:53:27.787Z,77.28
2023-01-28T13:55:58.715Z,79.04
2023-01-28T13:58:34.239Z,78.14
2023-01-28T14:01:17.974Z,77.36
2023-01-28T14:04:22.211Z,77.47
2023-01-28T14:07:20.350Z,77.32
2023-01-28T14:13:31.997Z,78.13
2023-01-28T14:16:41.660Z,78.29
2023-01-28T14:19:14.519Z,79.50
2023-01-28T14:21:41.381Z,80.17
2023-01-28T14:24:18.122Z,80.79
2023-01-28T14:27:04.530Z,80.61
2023-01-28T14:29:52.441Z,81.53
2023-01-28T14:32:29.788Z,80.94
2023-01-28T14:35:00.786Z,81.09
2023-01-28T14:37:31.946Z,80.80
2023-01-28T14:39:59.718Z,80.29
2023-01-28T14:42:45.837Z,81.13
2023-01-28T14:45:33.528Z,81.69
2023-01-28T14:48:30.972Z,81.73
2023-01-28T14:51:09.776Z,82.00
2023-01-28T14:54:19.587Z,82.44
2023-01-28T14:57:49.970Z,82.29
2023-01-28T15:00:28.784Z,83.18
2023-01-28T15:02:55.996Z,83.07
2023-01-28T15:05:27.855Z,82.95
2023-01-28T15:07:55.917Z,83.25
2023-01-28T15:10:25.337Z,83.35
2023-01-28T15:13:07.075Z,82.75
2023-01-28T15:15:37.477Z,82.81
2023-01-28T15:18:16.758Z,83.60
2023-01-28T15:20:53.494Z,83.49
2023-01-28T15:23:33.886Z,82.71
2023-01-28T15:26:10.979Z,83.11
2023-01-28T15:28:40.075Z,83.94
2023-01-28T15:31:07.544Z,83.93
2023-01-28T15:33:34.341Z,84.19
2023-01-28T15:36:01.288Z,84.76
2023-01-28T15:38:29.404Z,84.45
2023-01-28T15:41:02.862Z,84.43
2023-01-28T15:43:37.323Z,84.82
2023-01-28T15:46:10.479Z,84.68
2023-01-28T15:48:42.039Z,85.33
2023-01-28T15:51:21.175Z,85.14
2023-01-28T15:53:52.701Z,85.03
2023-01-28T15:56:27.979Z,84.92
2023-01-28T15:58:56.326Z,84.55
2023-01-28T16:01:24.222Z,84.84
2023-01-28T16:04:06.859Z,85.06
2023-01-28T16:06:41.842Z,84.52
2023-01-28T16:09:24.984Z,85.27
2023-01-28T16:11:52.565Z,84.95
2023-01-28T16:14:30.454Z,85.27
2023-01-28T16:16:57.988Z,85.40
2023-01-28T16:19:46.113Z,85.84
2023-01-28T16:22:33.934Z,86.43
2023-01-28T16:25:01.015Z,86.37
2023-01-28T16:27:29.785Z,86.03
2023-01-28T16:29:56.533Z,85.95
2023-01-28T16:32:33.436Z,85.79
2023-01-28T16:35:01.054Z,85.66
2023-01-28T16:37:27.972Z,86.07
2023-01-28T16:39:54.766Z,86.08
2023-01-28T16:42:21.657Z,85.63
2023-01-28T16:44:48.493Z,86.18
2023-01-28T16:47:15.352Z,86.22
2023-01-28T16:49:42.193Z,86.14
2023-01-28T16:52:11.575Z,86.39
2023-01-28T16:54:41.091Z,86.17
2023-01-28T16:57:16.750Z,86.06
2023-01-28T16:59:43.566Z,86.27
2023-01-28T17:02:15.973Z,86.30
2023-01-28T17:04:42.772Z,86.74
2023-01-28T17:07:10.077Z,87.06
2023-01-28T17:09:36.899Z,87.15
2023-01-28T17:12:04.801Z,87.04
2023-01-28T17:14:31.609Z,86.78
2023-01-28T17:16:58.364Z,87.12
2023-01-28T17:19:25.232Z,87.21
2023-01-28T17:21:52.001Z,87.39
2023-01-28T17:24:18.804Z,87.85
2023-01-28T17:26:45.618Z,87.81
2023-01-28T17:29:12.440Z,88.08
2023-01-28T17:31:39.275Z,87.76
2023-01-28T17:34:08.231Z,88.09
2023-01-28T17:36:35.286Z,88.19
2023-01-28T17:39:02.202Z,88.24
2023-01-28T17:41:29.284Z,88.27
2023-01-28T17:43:57.002Z,88.78
2023-01-28T17:46:25.836Z,89.59
2023-01-28T17:48:53.222Z,89.07
2023-01-28T17:51:20.281Z,89.31
2023-01-28T17:53:49.033Z,89.08
2023-01-28T17:56:18.718Z,89.01
2023-01-28T17:59:06.623Z,88.50
2023-01-28T18:01:37.293Z,88.65
2023-01-28T18:04:04.796Z,88.90
2023-01-28T18:06:34.214Z,88.94
2023-01-28T18:09:01.232Z,88.85
2023-01-28T18:11:28.864Z,89.36
2023-01-28T18:13:55.917Z,89.83
2023-01-28T18:16:23.057Z,89.47
2023-01-28T18:18:50.792Z,89.75
2023-01-28T18:21:46.573Z,89.77
2023-01-28T18:24:17.621Z,90.22
2023-01-28T18:26:44.633Z,90.08
2023-01-28T18:29:16.892Z,89.81
2023-01-28T18:31:44.145Z,90.29
2023-01-28T18:34:11.179Z,90.30
2023-01-28T18:36:38.084Z,90.13
2023-01-28T18:39:05.005Z,90.37
2023-01-28T18:41:31.876Z,90.79
2023-01-28T18:43:58.724Z,91.05
2023-01-28T18:46:25.583Z,91.08
2023-01-28T18:48:52.464Z,90.88
2023-01-28T18:51:30.156Z,90.96
2023-01-28T18:54:02.554Z,90.81
2023-01-28T18:56:54.187Z,91.16
2023-01-28T18:59:21.505Z,91.78
2023-01-28T19:01:48.758Z,91.56
2023-01-28T19:04:16.415Z,91.56
2023-01-28T19:06:43.571Z,91.69
2023-01-28T19:09:12.785Z,92.06
2023-01-28T19:11:41.043Z,93.03
2023-01-28T19:14:10.504Z,92.79
2023-01-28T19:16:37.810Z,92.53
2023-01-28T19:19:05.646Z,92.47
2023-01-28T19:21:34.225Z,92.41
2023-01-28T19:24:06.737Z,92.02
2023-01-28T19:26:34.139Z,92.15
2023-01-28T19:29:01.717Z,92.12
2023-01-28T19:31:29.440Z,92.57
2023-01-28T19:33:59.446Z,92.21
2023-01-28T19:36:29.479Z,92.07
2023-01-28T19:39:07.621Z,92.42
2023-01-28T19:41:35.909Z,92.25
2023-01-28T19:44:03.440Z,92.39
2023-01-28T19:46:30.876Z,92.39
2023-01-28T19:48:57.759Z,92.69
2023-01-28T19:51:25.167Z,92.22
2023-01-28T19:53:54.352Z,92.62
2023-01-28T19:56:24.386Z,92.15
2023-01-28T19:58:54.825Z,92.40
2023-01-28T20:01:27.943Z,92.15
2023-01-28T20:03:59.442Z,92.07
2023-01-28T20:06:31.650Z,91.88
2023-01-28T20:09:06.222Z,92.18
2023-01-28T20:11:33.161Z,92.35
2023-01-28T20:14:00.074Z,91.96
2023-01-28T20:16:31.247Z,91.47
2023-01-28T20:19:04.338Z,91.54
2023-01-28T20:21:33.171Z,92.12
2023-01-28T20:24:02.341Z,92.03
2023-01-28T20:26:33.250Z,92.11
2023-01-28T20:29:09.666Z,91.91
2023-01-28T20:31:38.775Z,91.72
2023-01-28T20:34:06.154Z,91.75
2023-01-28T20:36:33.281Z,92.03
2023-01-28T20:39:00.537Z,91.87
2023-01-28T20:41:27.792Z,91.51
2023-01-28T20:43:55.387Z,91.09
2023-01-28T20:46:27.747Z,91.38
2023-01-28T20:48:57.636Z,91.35
2023-01-28T20:51:28.387Z,91.50
2023-01-28T20:53:56.283Z,90.94
2023-01-28T20:56:27.653Z,91.17
2023-01-28T20:58:57.823Z,90.50
2023-01-28T21:01:29.450Z,90.65
2023-01-28T21:03:57.041Z,90.88
2023-01-28T21:06:25.265Z,91.46
2023-01-28T21:08:53.354Z,90.70
2023-01-28T21:11:21.044Z,90.92
2023-01-28T21:13:48.110Z,90.78
2023-01-28T21:16:15.206Z,90.24
2023-01-28T21:18:42.352Z,90.63
2023-01-28T21:21:20.911Z,90.55
2023-01-28T21:23:48.635Z,90.41
2023-01-28T21:26:16.669Z,90.32
2023-01-28T21:28:45.914Z,90.17
2023-01-28T21:31:22.194Z,89.76
2023-01-28T21:33:50.802Z,89.98
2023-01-28T21:36:18.718Z,89.91
2023-01-28T21:38:51.087Z,90.01
2023-01-28T21:41:18.074Z,90.15
2023-01-28T21:43:44.944Z,90.44
2023-01-28T21:46:11.827Z,90.60
2023-01-28T21:48:38.727Z,90.41
2023-01-28T21:51:47.363Z,90.43
2023-01-28T21:54:19.519Z,90.19
2023-01-28T21:56:49.431Z,90.53
2023-01-28T21:59:30.755Z,90.56
2023-01-28T22:02:01.235Z,90.53
2023-01-28T22:04:35.201Z,90.47
2023-01-28T22:07:03.701Z,90.87
2023-01-28T22:09:31.349Z,90.26
2023-01-28T22:11:58.261Z,90.41
2023-01-28T22:14:25.583Z,90.36
2023-01-28T22:16:53.329Z,90.61
2023-01-28T22:19:20.906Z,90.17
2023-01-28T22:21:48.745Z,89.31
2023-01-28T22:24:22.671Z,88.89
2023-01-28T22:26:49.984Z,88.30
2023-01-28T22:29:19.125Z,87.47
2023-01-28T22:31:50.894Z,86.64
2023-01-28T22:34:19.545Z,86.98
2023-01-28T22:36:47.474Z,86.91
2023-01-28T22:39:16.450Z,87.52
2023-01-28T22:41:44.796Z,86.65
2023-01-28T22:44:11.954Z,86.21
2023-01-28T22:46:38.888Z,86.57
2023-01-28T22:49:05.933Z,85.74
2023-01-28T22:51:35.990Z,85.77
2023-01-28T22:54:03.860Z,85.35
2023-01-28T22:56:31.763Z,85.18
2023-01-28T22:59:03.776Z,84.81
2023-01-28T23:01:31.201Z,85.06
2023-01-28T23:03:58.374Z,85.41
2023-01-28T23:06:27.685Z,85.60
2023-01-28T23:08:56.547Z,85.25
2023-01-28T23:11:28.352Z,85.63
2023-01-28T23:14:19.861Z,85.07
2023-01-28T23:17:06.476Z,84.90
2023-01-28T23:19:52.276Z,84.76
2023-01-28T23:22:47.424Z,84.99
2023-01-28T23:25:15.103Z,84.86
2023-01-28T23:27:43.210Z,85.01
2023-01-28T23:30:11.920Z,84.86
2023-01-28T23:32:41.981Z,84.15
2023-01-28T23:35:10.575Z,84.40
2023-01-28T23:37:37.844Z,83.88
2023-01-28T23:40:06.348Z,84.36
2023-01-28T23:42:33.252Z,84.55
2023-01-28T23:45:00.262Z,84.79
2023-01-28T23:47:27.144Z,83.82
2023-01-28T23:49:54.399Z,84.20
2023-01-28T23:52:21.373Z,84.42
2023-01-28T23:54:48.236Z,84.55
2023-01-28T23:57:15.169Z,84.68
2023-01-28T23:59:42.582Z,84.74
